createdAt,value
2023-02-05T00:03:46.354Z,17.90
2023-02-05T00:06:18.004Z,15.20
2023-02-05T00:08:49.624Z,15.70
2023-02-05T00:11:21.239Z,18.30
2023-02-05T00:16:26.231Z,15.10
2023-02-05T00:18:58.982Z,14.00
2023-02-05T00:21:30.696Z,15.20
2023-02-05T00:26:32.670Z,15.60
2023-02-05T00:29:04.689Z,13.10
2023-02-05T00:31:36.628Z,19.00
2023-02-05T00:34:08.276Z,15.20
2023-02-05T00:39:11.396Z,15.70
2023-02-05T00:41:43.085Z,16.30
2023-02-05T00:46:44.844Z,16.90
2023-02-05T00:49:17.011Z,15.50
2023-02-05T00:54:18.862Z,12.80
2023-02-05T00:56:51.139Z,10.50
2023-02-05T01:01:55.411Z,12.20
2023-02-05T01:06:57.205Z,12.70
2023-02-05T01:12:00.136Z,13.50
2023-02-05T01:14:32.491Z,13.00
2023-02-05T01:19:35.470Z,14.10
2023-02-05T01:22:07.209Z,15.10
2023-02-05T01:27:09.097Z,16.00
2023-02-05T01:29:40.812Z,17.00
2023-02-05T01:34:42.684Z,15.40
2023-02-05T01:37:14.332Z,16.60
2023-02-05T01:39:47.057Z,18.00
2023-02-05T01:42:22.089Z,15.90
2023-02-05T01:45:32.610Z,19.10
2023-02-05T01:48:07.419Z,40.80
2023-02-05T01:50:44.043Z,34.10
2023-02-05T01:53:41.249Z,35.40
2023-02-05T01:56:19.067Z,23.70
2023-02-05T01:58:55.711Z,17.80
2023-02-05T02:01:28.783Z,16.50
2023-02-05T02:04:04.596Z,21.60
2023-02-05T02:06:38.173Z,25.90
2023-02-05T02:09:10.733Z,21.30
2023-02-05T02:11:45.146Z,16.80
2023-02-05T02:14:18.645Z,22.50
2023-02-05T02:16:51.337Z,21.40
2023-02-05T02:19:30.984Z,22.00
2023-02-05T02:22:28.937Z,23.70
2023-02-05T02:25:22.622Z,21.50
2023-02-05T02:27:58.184Z,21.30
2023-02-05T02:30:34.080Z,23.70
2023-02-05T02:33:09.864Z,26.80
2023-02-05T02:35:48.342Z,23.90
2023-02-05T02:38:26.836Z,24.20
2023-02-05T02:41:05.571Z,37.90
2023-02-05T02:43:45.994Z,34.30
2023-02-05T02:46:22.273Z,28.90
2023-02-05T02:48:58.214Z,29.20
2023-02-05T02:51:32.176Z,24.30
2023-02-05T02:54:08.971Z,29.90
2023-02-05T02:56:42.552Z,24.30
2023-02-05T02:59:18.043Z,21.90
2023-02-05T03:01:56.724Z,21.80
2023-02-05T03:04:33.117Z,22.50
2023-02-05T03:07:13.584Z,22.80
2023-02-05T03:09:51.691Z,21.50
2023-02-05T03:12:23.924Z,20.00
2023-02-05T03:14:56.569Z,22.90
2023-02-05T03:17:30.385Z,18.70
2023-02-05T03:20:09.028Z,18.20
2023-02-05T03:22:40.953Z,20.00
2023-02-05T03:25:13.177Z,18.40
2023-02-05T03:27:45.289Z,18.40
2023-02-05T03:30:17.890Z,18.80
2023-02-05T03:33:01.064Z,19.40
2023-02-05T03:35:40.531Z,18.90
2023-02-05T03:38:36.797Z,19.10
2023-02-05T03:41:16.777Z,21.50
2023-02-05T03:43:59.394Z,21.80
2023-02-05T03:46:42.359Z,24.80
2023-02-05T03:49:20.917Z,22.80
2023-02-05T03:51:59.153Z,19.90
2023-02-05T03:54:37.719Z,20.70
2023-02-05T03:57:20.091Z,19.30
2023-02-05T03:59:54.132Z,19.90
2023-02-05T04:02:26.797Z,21.10
2023-02-05T04:05:00.219Z,18.90
2023-02-05T04:07:33.274Z,21.80
2023-02-05T04:10:05.342Z,22.10
2023-02-05T04:12:38.478Z,24.00
2023-02-05T04:15:11.141Z,22.10
2023-02-05T04:17:44.465Z,18.80
2023-02-05T04:20:16.410Z,17.20
2023-02-05T04:22:48.087Z,22.50
2023-02-05T04:25:21.050Z,19.30
2023-02-05T04:27:52.899Z,18.10
2023-02-05T04:30:25.150Z,21.50
2023-02-05T04:32:56.909Z,21.30
2023-02-05T04:35:29.244Z,19.70
2023-02-05T04:38:00.978Z,20.20
2023-02-05T04:40:32.988Z,24.40
2023-02-05T04:45:34.941Z,26.00
2023-02-05T04:48:07.290Z,19.70
2023-02-05T04:50:39.893Z,20.70
2023-02-05T04:53:11.798Z,19.80
2023-02-05T04:55:43.572Z,20.30
2023-02-05T05:00:45.359Z,19.20
2023-02-05T05:05:47.676Z,17.00
2023-02-05T05:08:19.883Z,22.40
2023-02-05T05:10:51.519Z,19.60
2023-02-05T05:15:57.402Z,29.60
2023-02-05T05:18:29.351Z,25.10
2023-02-05T05:21:01.461Z,30.20
2023-02-05T05:23:33.512Z,33.30
2023-02-05T05:26:08.865Z,34.60
2023-02-05T05:28:40.793Z,33.20
2023-02-05T05:31:16.588Z,36.40
2023-02-05T05:33:48.794Z,33.70
2023-02-05T05:36:20.619Z,35.20
2023-02-05T05:38:52.259Z,33.40
2023-02-05T05:44:13.549Z,42.30
2023-02-05T05:49:15.229Z,45.10
2023-02-05T05:54:17.085Z,42.60
2023-02-05T05:56:49.644Z,42.30
2023-02-05T05:59:21.311Z,41.30
2023-02-05T06:04:23.094Z,32.90
2023-02-05T06:06:55.146Z,31.60
2023-02-05T06:09:26.765Z,33.70
2023-02-05T06:14:28.526Z,30.40
2023-02-05T06:19:30.392Z,30.20
2023-02-05T06:22:02.081Z,31.40
2023-02-05T06:27:04.066Z,26.80
2023-02-05T06:29:35.674Z,28.60
2023-02-05T06:34:37.691Z,36.80
2023-02-05T06:39:40.096Z,28.30
2023-02-05T06:42:11.756Z,25.70
2023-02-05T06:44:43.563Z,29.70
2023-02-05T06:49:45.283Z,34.10
2023-02-05T06:54:47.077Z,32.10
2023-02-05T06:59:48.774Z,25.30
2023-02-05T07:04:50.631Z,23.40
2023-02-05T07:09:52.486Z,43.30
2023-02-05T07:14:54.268Z,29.80
2023-02-05T07:19:56.127Z,31.60
2023-02-05T07:24:58.797Z,36.50
2023-02-05T07:27:31.229Z,30.70
2023-02-05T07:30:02.849Z,28.00
2023-02-05T07:35:04.873Z,28.40
2023-02-05T07:37:37.419Z,30.20
2023-02-05T07:40:11.383Z,36.40
2023-02-05T07:42:43.134Z,25.00
2023-02-05T07:45:16.522Z,31.80
2023-02-05T07:50:18.782Z,34.00
2023-02-05T07:52:50.812Z,29.40
2023-02-05T07:55:22.558Z,29.60
2023-02-05T07:57:54.419Z,24.00
2023-02-05T08:02:56.766Z,26.20
2023-02-05T08:05:28.630Z,30.30
2023-02-05T08:08:00.293Z,28.00
2023-02-05T08:13:01.980Z,31.80
2023-02-05T08:18:04.046Z,42.90
2023-02-05T08:23:05.821Z,32.30
2023-02-05T08:28:08.302Z,32.00
2023-02-05T08:30:41.167Z,39.50
2023-02-05T08:33:12.817Z,45.70
2023-02-05T08:38:14.627Z,33.20
2023-02-05T08:43:16.435Z,33.30
2023-02-05T08:48:20.341Z,48.60
2023-02-05T08:53:22.308Z,182.10
2023-02-05T08:55:59.250Z,38.70
2023-02-05T08:58:30.954Z,40.20
2023-02-05T09:03:36.574Z,51.60
2023-02-05T09:06:11.145Z,99.50
2023-02-05T09:08:43.418Z,46.20
2023-02-05T09:11:15.147Z,32.80
2023-02-05T09:13:46.943Z,88.90
2023-02-05T09:18:48.862Z,44.40
2023-02-05T09:23:50.719Z,29.60
2023-02-05T09:28:52.715Z,33.50
2023-02-05T09:33:55.785Z,19.80
2023-02-05T09:36:27.536Z,22.30
2023-02-05T09:39:12.930Z,43.50
2023-02-05T09:41:57.196Z,32.40
2023-02-05T09:44:47.666Z,38.50
2023-02-05T09:47:26.816Z,31.40
2023-02-05T09:50:08.730Z,31.50
2023-02-05T09:52:44.749Z,51.50
2023-02-05T09:55:23.676Z,27.70
2023-02-05T09:58:00.800Z,21.90
2023-02-05T10:00:35.101Z,21.90
2023-02-05T10:03:12.584Z,30.90
2023-02-05T10:05:57.131Z,30.40
2023-02-05T10:08:40.367Z,26.50
2023-02-05T10:11:23.749Z,32.20
2023-02-05T10:14:06.053Z,31.20
2023-02-05T10:16:58.681Z,30.60
2023-02-05T10:19:52.552Z,21.00
2023-02-05T10:22:30.835Z,26.40
2023-02-05T10:25:19.536Z,26.30
2023-02-05T10:28:01.135Z,20.20
2023-02-05T10:30:37.935Z,24.30
2023-02-05T10:33:17.744Z,17.20
2023-02-05T10:35:58.291Z,24.70
2023-02-05T10:38:35.579Z,22.60
2023-02-05T10:41:14.954Z,26.10
2023-02-05T10:43:51.073Z,26.40
2023-02-05T10:46:27.020Z,39.80
2023-02-05T10:49:02.151Z,44.60
2023-02-05T10:51:40.544Z,26.40
2023-02-05T10:54:22.303Z,22.40
2023-02-05T10:59:27.953Z,39.40
2023-02-05T11:02:03.244Z,34.40
2023-02-05T11:04:39.869Z,34.90
2023-02-05T11:07:18.623Z,43.40
2023-02-05T11:09:50.336Z,23.40
2023-02-05T11:12:28.768Z,27.80
2023-02-05T11:15:02.592Z,24.00
2023-02-05T11:17:38.335Z,20.20
2023-02-05T11:20:27.080Z,24.70
2023-02-05T11:23:24.976Z,19.90
2023-02-05T11:25:58.927Z,18.50
2023-02-05T11:28:32.114Z,18.20
2023-02-05T11:31:26.367Z,16.00
2023-02-05T11:34:14.857Z,16.30
2023-02-05T11:36:53.488Z,14.60
2023-02-05T11:39:34.232Z,15.30
2023-02-05T11:42:17.843Z,14.20
2023-02-05T11:44:53.650Z,14.90
2023-02-05T11:47:30.010Z,15.60
2023-02-05T11:50:02.481Z,16.10
2023-02-05T11:52:38.388Z,21.00
2023-02-05T11:55:28.996Z,20.20
2023-02-05T11:58:06.374Z,18.80
2023-02-05T12:00:38.039Z,17.50
2023-02-05T12:05:55.081Z,22.90
2023-02-05T12:08:35.795Z,19.90
2023-02-05T12:11:29.105Z,23.10
2023-02-05T12:14:07.820Z,24.30
2023-02-05T12:16:49.360Z,17.20
2023-02-05T12:19:25.336Z,15.30
2023-02-05T12:22:03.425Z,18.70
2023-02-05T12:25:00.385Z,18.00
2023-02-05T12:27:47.176Z,17.30
2023-02-05T12:30:45.829Z,19.00
2023-02-05T12:33:45.368Z,14.30
2023-02-05T12:36:30.441Z,20.90
2023-02-05T12:39:15.543Z,33.00
2023-02-05T12:41:59.184Z,15.60
2023-02-05T12:44:40.433Z,14.20
2023-02-05T12:47:27.511Z,13.70
2023-02-05T12:50:13.443Z,15.60
2023-02-05T12:53:06.433Z,15.70
2023-02-05T12:55:52.121Z,17.40
2023-02-05T12:58:27.533Z,15.80
2023-02-05T13:01:04.368Z,24.00
2023-02-05T13:03:40.518Z,13.20
2023-02-05T13:06:18.673Z,11.90
2023-02-05T13:08:54.397Z,18.20
2023-02-05T13:11:31.642Z,14.50
2023-02-05T13:14:09.913Z,74.00
2023-02-05T13:16:46.073Z,83.20
2023-02-05T13:19:28.093Z,16.00
2023-02-05T13:22:21.424Z,12.60
2023-02-05T13:25:15.423Z,16.00
2023-02-05T13:28:08.040Z,13.40
2023-02-05T13:30:45.031Z,68.30
2023-02-05T13:33:17.091Z,56.40
2023-02-05T13:36:01.759Z,38.20
2023-02-05T13:38:52.541Z,36.40
2023-02-05T13:41:47.414Z,40.60
2023-02-05T13:44:40.431Z,21.30
2023-02-05T13:47:45.354Z,22.80
2023-02-05T13:50:42.401Z,26.20
2023-02-05T13:53:26.801Z,16.00
2023-02-05T13:56:17.777Z,15.50
2023-02-05T13:58:53.285Z,16.30
2023-02-05T14:01:29.775Z,21.70
2023-02-05T14:04:05.616Z,21.20
2023-02-05T14:06:39.154Z,17.00
2023-02-05T14:09:21.021Z,29.00
2023-02-05T14:11:59.161Z,21.60
2023-02-05T14:14:35.044Z,16.90
2023-02-05T14:17:44.331Z,16.00
2023-02-05T14:20:35.153Z,15.20
2023-02-05T14:23:15.579Z,15.00
2023-02-05T14:26:14.486Z,18.80
2023-02-05T14:28:54.399Z,14.70
2023-02-05T14:31:53.205Z,15.80
2023-02-05T14:34:47.957Z,15.10
2023-02-05T14:37:34.075Z,17.70
2023-02-05T14:40:24.440Z,19.50
2023-02-05T14:43:10.034Z,23.00
2023-02-05T14:45:49.259Z,37.00
2023-02-05T14:48:28.765Z,19.40
2023-02-05T14:51:10.792Z,20.00
2023-02-05T14:53:48.159Z,18.00
2023-02-05T14:56:31.822Z,18.00
2023-02-05T14:59:15.423Z,19.00
2023-02-05T15:01:54.463Z,16.90
2023-02-05T15:04:36.571Z,23.80
2023-02-05T15:07:14.832Z,20.80
2023-02-05T15:09:54.887Z,45.10
2023-02-05T15:12:48.402Z,32.70
2023-02-05T15:15:36.023Z,31.10
2023-02-05T15:18:21.367Z,27.20
2023-02-05T15:20:57.147Z,32.10
2023-02-05T15:23:36.237Z,31.70
2023-02-05T15:26:16.297Z,36.10
2023-02-05T15:28:56.842Z,57.10
2023-02-05T15:31:38.352Z,29.70
2023-02-05T15:34:28.160Z,31.10
2023-02-05T15:37:06.568Z,17.30
2023-02-05T15:39:48.640Z,19.10
2023-02-05T15:42:23.874Z,26.50
2023-02-05T15:44:55.947Z,19.60
2023-02-05T15:47:29.906Z,20.00
2023-02-05T15:50:02.948Z,20.10
2023-02-05T15:52:35.969Z,21.20
2023-02-05T15:55:18.874Z,21.90
2023-02-05T15:57:52.200Z,25.70
2023-02-05T16:00:30.398Z,28.30
2023-02-05T16:03:04.317Z,30.90
2023-02-05T16:05:37.797Z,30.70
2023-02-05T16:08:21.317Z,31.60
2023-02-05T16:10:58.629Z,22.50
2023-02-05T16:13:34.777Z,19.20
2023-02-05T16:16:10.288Z,21.40
2023-02-05T16:18:48.098Z,56.30
2023-02-05T16:21:28.130Z,84.90
2023-02-05T16:24:04.051Z,48.70
2023-02-05T16:26:40.783Z,34.80
2023-02-05T16:29:25.863Z,76.90
2023-02-05T16:32:04.002Z,53.10
2023-02-05T16:34:40.119Z,250.30
2023-02-05T16:37:18.005Z,402.90
2023-02-05T16:39:54.590Z,88.20
2023-02-05T16:42:40.448Z,167.60
2023-02-05T16:45:24.319Z,180.30
2023-02-05T16:48:21.577Z,57.70
2023-02-05T16:50:56.774Z,132.50
2023-02-05T16:53:29.945Z,168.10
2023-02-05T16:56:12.325Z,122.80
2023-02-05T16:58:50.317Z,38.70
2023-02-05T17:01:28.272Z,67.30
2023-02-05T17:04:00.589Z,147.20
2023-02-05T17:06:37.441Z,35.80
2023-02-05T17:09:09.400Z,165.90
2023-02-05T17:11:43.742Z,57.80
2023-02-05T17:14:27.763Z,67.50
2023-02-05T17:17:02.125Z,90.30
2023-02-05T17:19:34.997Z,193.90
2023-02-05T17:22:23.681Z,227.20
2023-02-05T17:24:55.526Z,68.10
2023-02-05T17:27:30.817Z,229.60
2023-02-05T17:30:05.652Z,174.50
2023-02-05T17:32:39.312Z,66.10
2023-02-05T17:35:16.313Z,81.80
2023-02-05T17:37:48.145Z,82.10
2023-02-05T17:40:21.192Z,197.70
2023-02-05T17:42:52.908Z,186.00
2023-02-05T17:47:56.181Z,136.80
2023-02-05T17:50:28.187Z,53.80
2023-02-05T17:53:00.133Z,75.30
2023-02-05T17:55:32.450Z,76.80
2023-02-05T17:58:04.338Z,103.60
2023-02-05T18:00:37.265Z,127.90
2023-02-05T18:03:09.263Z,183.90
2023-02-05T18:08:13.521Z,137.00
2023-02-05T18:10:46.229Z,74.50
2023-02-05T18:13:18.561Z,56.10
2023-02-05T18:15:52.318Z,78.30
2023-02-05T18:18:24.060Z,58.20
2023-02-05T18:23:28.972Z,55.40
2023-02-05T18:26:01.264Z,95.70
2023-02-05T18:28:33.936Z,232.70
2023-02-05T18:31:08.570Z,97.80
2023-02-05T18:33:43.689Z,55.40
2023-02-05T18:36:16.713Z,65.30
2023-02-05T18:38:48.347Z,58.90
2023-02-05T18:43:57.397Z,78.50
2023-02-05T18:46:29.423Z,204.00
2023-02-05T18:49:01.610Z,65.30
2023-02-05T18:51:33.335Z,65.10
2023-02-05T18:56:40.458Z,75.00
2023-02-05T18:59:16.108Z,74.80
2023-02-05T19:01:47.846Z,66.90
2023-02-05T19:04:21.737Z,71.10
2023-02-05T19:06:54.572Z,63.30
2023-02-05T19:09:27.688Z,56.90
2023-02-05T19:11:59.449Z,59.10
2023-02-05T19:14:32.904Z,48.40
2023-02-05T19:19:35.760Z,70.70
2023-02-05T19:22:07.791Z,79.40
2023-02-05T19:24:40.622Z,66.70
2023-02-05T19:27:12.533Z,46.60
2023-02-05T19:29:44.331Z,45.70
2023-02-05T19:34:46.803Z,35.70
2023-02-05T19:37:18.975Z,29.90
2023-02-05T19:39:50.829Z,44.00
2023-02-05T19:42:22.778Z,53.20
2023-02-05T19:44:54.848Z,51.20
2023-02-05T19:47:28.249Z,55.60
2023-02-05T19:50:00.179Z,81.30
2023-02-05T19:52:31.906Z,162.00
2023-02-05T19:57:34.987Z,171.50
2023-02-05T20:00:08.199Z,229.30
2023-02-05T20:02:44.442Z,216.30
2023-02-05T20:05:16.481Z,66.90
2023-02-05T20:10:21.510Z,196.20
2023-02-05T20:12:53.293Z,65.80
2023-02-05T20:17:58.517Z,322.60
2023-02-05T20:20:33.761Z,188.80
2023-02-05T20:23:05.855Z,115.80
2023-02-05T20:28:08.004Z,269.40
2023-02-05T20:30:59.719Z,78.40
2023-02-05T20:33:31.390Z,248.80
2023-02-05T20:38:37.815Z,84.80
2023-02-05T20:41:17.978Z,69.20
2023-02-05T20:43:50.036Z,78.50
2023-02-05T20:46:23.100Z,64.80
2023-02-05T20:48:55.472Z,66.40
2023-02-05T20:51:27.127Z,72.60
2023-02-05T20:56:31.465Z,43.40
2023-02-05T20:59:04.853Z,153.40
2023-02-05T21:01:39.015Z,70.00
2023-02-05T21:04:12.700Z,58.60
2023-02-05T21:06:44.367Z,113.00
2023-02-05T21:09:17.346Z,52.80
2023-02-05T21:11:50.252Z,64.40
2023-02-05T21:14:22.036Z,67.60
2023-02-05T21:19:24.458Z,162.60
2023-02-05T21:21:56.091Z,249.60
2023-02-05T21:26:58.261Z,89.80
2023-02-05T21:29:29.997Z,86.00
2023-02-05T21:32:01.677Z,66.70
2023-02-05T21:37:03.522Z,67.70
2023-02-05T21:42:05.962Z,55.90
2023-02-05T21:44:37.681Z,51.80
2023-02-05T21:49:39.693Z,61.30
2023-02-05T21:52:11.385Z,337.00
2023-02-05T21:57:13.134Z,341.30
2023-02-05T22:02:15.368Z,378.90
2023-02-05T22:04:47.035Z,391.80
2023-02-05T22:09:48.916Z,101.80
2023-02-05T22:14:51.179Z,111.30
2023-02-05T22:17:23.300Z,298.50
2023-02-05T22:19:54.980Z,85.80
2023-02-05T22:24:56.738Z,142.60
2023-02-05T22:27:29.790Z,45.20
2023-02-05T22:30:01.444Z,147.70
2023-02-05T22:35:04.611Z,148.00
2023-02-05T22:37:36.340Z,58.70
2023-02-05T22:42:40.455Z,163.60
2023-02-05T22:47:42.553Z,71.10
2023-02-05T22:52:44.263Z,92.50
2023-02-05T22:57:46.009Z,45.60
2023-02-05T23:02:49.715Z,247.90
2023-02-05T23:05:21.439Z,67.00
2023-02-05T23:07:53.870Z,158.50
2023-02-05T23:10:25.967Z,91.80
2023-02-05T23:12:57.656Z,32.50
2023-02-05T23:17:59.405Z,20.80
2023-02-05T23:23:01.208Z,41.10
2023-02-05T23:28:03.003Z,22.90
2023-02-05T23:33:04.901Z,26.60
2023-02-05T23:38:06.973Z,22.50
2023-02-05T23:43:08.712Z,154.20
2023-02-05T23:48:10.764Z,37.50
2023-02-05T23:50:43.650Z,65.20
2023-02-05T23:53:15.249Z,47.60
2023-02-05T23:55:46.904Z,27.40
